Time;durP1;ratioP1;P1;durP2;ratioP2;P2;SDS_P1;SDS_P2;PMS_P1;PMS_P2;Temp;Humidity;BMP_temperature;BMP_pressure;BME280_temperature;BME280_humidity;BME280_pressure;Samples;Min_cycle;Max_cycle;Signal;HPM_P1;HPM_P2
2021/10/20 00:01:13;;;;;;;4.15;2.20;;;;;;;8.43;100.00;95969.00;5030578;28;20099;-80
2021/10/20 00:03:39;;;;;;;6.25;2.47;;;;;;;8.42;100.00;95962.16;5041394;28;20045;-81
2021/10/20 00:06:05;;;;;;;3.78;2.20;;;;;;;8.38;100.00;95965.50;5064464;28;20509;-79
2021/10/20 00:08:30;;;;;;;3.95;1.90;;;;;;;8.12;100.00;95958.09;5055394;28;20049;-80
2021/10/20 00:10:56;;;;;;;3.78;2.10;;;;;;;8.13;100.00;95967.56;5063939;28;20051;-80
2021/10/20 00:13:22;;;;;;;4.68;2.30;;;;;;;8.02;100.00;95955.34;5052871;28;20049;-80
2021/10/20 00:15:48;;;;;;;3.88;2.00;;;;;;;8.04;100.00;95961.13;5051723;28;20037;-81
2021/10/20 00:18:14;;;;;;;4.35;2.17;;;;;;;7.95;100.00;95952.09;5052617;28;20139;-80
2021/10/20 00:20:40;;;;;;;3.60;1.90;;;;;;;7.89;100.00;95953.06;5067586;28;20043;-80
2021/10/20 00:23:06;;;;;;;4.00;2.17;;;;;;;7.84;100.00;95945.13;5054215;28;20048;-81
2021/10/20 00:25:31;;;;;;;3.17;1.90;;;;;;;7.71;100.00;95936.56;5063788;28;20040;-81
2021/10/20 00:27:57;;;;;;;3.63;2.00;;;;;;;7.69;100.00;95949.13;5054251;28;20053;-81
2021/10/20 00:30:23;;;;;;;4.53;2.28;;;;;;;7.73;100.00;95939.75;5057855;28;20041;-81
2021/10/20 00:32:49;;;;;;;3.97;2.08;;;;;;;7.74;100.00;95940.53;5046219;28;20452;-80
2021/10/20 00:35:14;;;;;;;4.10;2.20;;;;;;;7.71;100.00;95933.16;5054151;28;20037;-80
2021/10/20 00:37:41;;;;;;;6.78;2.13;;;;;;;7.61;100.00;95920.69;5052081;28;20044;-80
2021/10/20 00:40:07;;;;;;;4.00;2.25;;;;;;;7.63;100.00;95918.66;5050828;28;20379;-80
2021/10/20 00:42:34;;;;;;;4.07;2.28;;;;;;;7.57;100.00;95919.59;5050443;28;20130;-81
2021/10/20 00:45:03;;;;;;;5.18;2.30;;;;;;;7.47;100.00;95901.94;5046007;28;20045;-81
2021/10/20 00:47:29;;;;;;;5.90;2.30;;;;;;;7.48;100.00;95905.31;5061577;28;20041;-80
2021/10/20 00:49:55;;;;;;;3.90;1.98;;;;;;;7.51;100.00;95904.84;5072700;28;20095;-81
2021/10/20 00:52:24;;;;;;;3.53;1.98;;;;;;;7.55;100.00;95900.72;5047946;28;20071;-80
2021/10/20 00:54:53;;;;;;;3.97;2.00;;;;;;;7.50;100.00;95901.44;5059439;28;20036;-80
2021/10/20 00:57:21;;;;;;;3.10;2.10;;;;;;;7.46;100.00;95898.50;5071325;28;20421;-81
2021/10/20 00:59:47;;;;;;;6.13;2.00;;;;;;;7.43;100.00;95893.75;5063596;28;20041;-80
2021/10/20 01:02:13;;;;;;;6.68;2.47;;;;;;;7.37;100.00;95886.84;5048818;28;20387;-80
2021/10/20 01:04:38;;;;;;;4.05;1.90;;;;;;;7.35;100.00;95891.53;5033843;28;20048;-81
2021/10/20 01:07:05;;;;;;;5.05;2.30;;;;;;;7.34;100.00;95889.94;5041456;28;20130;-81
2021/10/20 01:09:31;;;;;;;3.45;1.95;;;;;;;7.38;100.00;95885.78;5056239;28;20599;-82
2021/10/20 01:11:57;;;;;;;4.53;1.92;;;;;;;7.31;100.00;95874.69;5045914;28;20045;-81
2021/10/20 01:14:23;;;;;;;3.67;1.80;;;;;;;7.27;100.00;95874.41;5055990;28;20044;-79
2021/10/20 01:16:49;;;;;;;3.88;2.00;;;;;;;7.25;100.00;95876.44;5038626;28;20038;-80
2021/10/20 01:19:15;;;;;;;4.85;2.10;;;;;;;7.24;100.00;95868.84;5047027;28;20125;-79
2021/10/20 01:21:41;;;;;;;3.70;1.98;;;;;;;7.24;100.00;95863.59;5051342;28;20041;-79
2021/10/20 01:24:08;;;;;;;4.32;2.00;;;;;;;7.18;100.00;95859.31;5050184;28;20052;-80
2021/10/20 01:26:33;;;;;;;5.07;1.85;;;;;;;7.14;100.00;95858.22;5066561;28;20041;-80
2021/10/20 01:28:59;;;;;;;3.15;1.80;;;;;;;7.04;100.00;95849.19;5059015;28;20058;-79
2021/10/20 01:31:25;;;;;;;4.22;2.40;;;;;;;6.99;100.00;95851.72;5064875;28;20040;-79
2021/10/20 01:33:51;;;;;;;3.58;1.92;;;;;;;6.97;100.00;95840.69;5059101;28;20041;-79
2021/10/20 01:36:16;;;;;;;4.15;2.00;;;;;;;6.96;100.00;95846.94;5055414;28;20517;-79
2021/10/20 01:38:42;;;;;;;3.15;1.92;;;;;;;6.93;100.00;95842.19;5066356;28;20045;-80
2021/10/20 01:41:08;;;;;;;3.53;1.90;;;;;;;6.93;100.00;95837.75;5050929;28;20041;-80
2021/10/20 01:43:48;;;;;;;2.78;1.55;;;;;;;6.90;100.00;95832.22;5030872;28;20037;-80
2021/10/20 01:46:21;;;;;;;4.90;2.00;;;;;;;6.90;100.00;95826.97;5060283;28;20046;-79
2021/10/20 01:48:47;;;;;;;3.47;1.98;;;;;;;7.01;100.00;95833.97;5064613;28;20046;-80
2021/10/20 01:51:14;;;;;;;4.78;1.70;;;;;;;6.90;100.00;95826.97;5069225;28;20041;-80
2021/10/20 01:53:42;;;;;;;4.03;1.75;;;;;;;6.82;100.00;95829.97;5057689;28;20037;-81
2021/10/20 01:56:09;;;;;;;5.30;1.88;;;;;;;6.75;100.00;95820.47;5048672;28;20045;-80
2021/10/20 01:58:34;;;;;;;4.25;1.75;;;;;;;6.72;100.00;95823.56;5051243;28;20055;-80
2021/10/20 02:01:01;;;;;;;4.55;2.25;;;;;;;6.67;100.00;95818.25;5051089;28;20040;-80
2021/10/20 02:03:27;;;;;;;4.15;1.75;;;;;;;6.66;100.00;95819.25;5051676;28;20044;-80
2021/10/20 02:05:56;;;;;;;4.20;2.00;;;;;;;6.59;100.00;95811.59;5032656;28;20506;-80
2021/10/20 02:08:22;;;;;;;2.90;1.77;;;;;;;6.56;100.00;95812.03;5050106;28;20560;-80
2021/10/20 02:10:48;;;;;;;4.93;1.65;;;;;;;6.57;100.00;95797.16;5034396;28;20090;-80
2021/10/20 02:13:14;;;;;;;3.80;1.90;;;;;;;6.56;100.00;95811.25;5040376;28;20646;-80
2021/10/20 02:15:41;;;;;;;3.22;1.60;;;;;;;6.62;100.00;95799.84;5048387;28;20476;-80
2021/10/20 02:18:07;;;;;;;4.22;1.80;;;;;;;6.85;100.00;95798.13;5022240;28;20115;-80
2021/10/20 02:20:33;;;;;;;3.53;1.80;;;;;;;6.82;100.00;95788.13;5038317;28;20086;-79
2021/10/20 02:22:58;;;;;;;3.03;1.80;;;;;;;6.61;100.00;95789.63;5048770;28;20090;-80
2021/10/20 02:25:24;;;;;;;3.35;1.65;;;;;;;6.70;100.00;95786.38;5054064;28;20044;-79
2021/10/20 02:27:50;;;;;;;4.28;1.77;;;;;;;6.61;100.00;95784.38;5050765;28;20051;-80
2021/10/20 02:30:16;;;;;;;3.33;1.83;;;;;;;6.35;100.00;95774.31;5063773;28;20090;-79
2021/10/20 02:32:41;;;;;;;4.25;1.92;;;;;;;6.43;100.00;95772.34;5028226;28;20140;-81
2021/10/20 02:35:08;;;;;;;3.88;1.90;;;;;;;6.36;100.00;95765.41;5059497;28;20049;-80
2021/10/20 02:37:35;;;;;;;3.40;1.70;;;;;;;6.29;100.00;95775.22;5049474;28;20521;-81
2021/10/20 02:40:02;;;;;;;5.30;1.98;;;;;;;6.26;100.00;95765.25;5066270;28;20045;-79
2021/10/20 02:42:27;;;;;;;2.60;1.48;;;;;;;6.15;100.00;95759.06;5017718;28;20045;-80
2021/10/20 02:44:53;;;;;;;3.78;2.00;;;;;;;6.18;100.00;95758.59;5063046;28;20512;-80
2021/10/20 02:47:18;;;;;;;2.42;1.60;;;;;;;6.14;100.00;95767.16;5031633;28;20041;-80
2021/10/20 02:49:44;;;;;;;3.05;1.70;;;;;;;6.12;100.00;95758.72;5028615;28;20423;-80
2021/10/20 02:52:09;;;;;;;4.25;1.80;;;;;;;6.07;100.00;95762.84;5047957;28;20041;-80
2021/10/20 02:54:35;;;;;;;3.70;1.85;;;;;;;6.11;100.00;95772.84;5030110;28;20138;-81
2021/10/20 02:57:02;;;;;;;5.32;1.85;;;;;;;6.14;100.00;95762.72;5062200;28;20595;-81
2021/10/20 02:59:27;;;;;;;4.00;1.75;;;;;;;6.12;100.00;95763.97;5044435;28;20498;-81
2021/10/20 03:01:53;;;;;;;3.72;1.80;;;;;;;6.31;100.00;95757.50;5048306;28;20062;-80
2021/10/20 03:04:18;;;;;;;3.78;1.80;;;;;;;6.16;100.00;95759.84;5048309;28;20529;-81
2021/10/20 03:06:44;;;;;;;3.45;2.00;;;;;;;6.01;100.00;95748.09;5056327;28;20037;-80
2021/10/20 03:09:10;;;;;;;4.03;1.80;;;;;;;6.17;100.00;95740.53;5051192;28;20047;-80
2021/10/20 03:11:35;;;;;;;3.42;1.90;;;;;;;6.17;100.00;95741.31;5052853;28;20045;-81
2021/10/20 03:14:01;;;;;;;3.75;1.90;;;;;;;5.99;100.00;95742.34;5047117;28;20045;-80
2021/10/20 03:16:26;;;;;;;5.10;1.65;;;;;;;5.91;100.00;95742.66;5033900;28;20049;-80
2021/10/20 03:18:52;;;;;;;3.03;1.95;;;;;;;5.84;100.00;95745.41;5029534;28;20050;-80
2021/10/20 03:21:18;;;;;;;5.75;1.98;;;;;;;5.82;100.00;95728.38;5056261;28;20559;-81
2021/10/20 03:23:43;;;;;;;3.17;1.83;;;;;;;5.87;100.00;95731.09;5060682;28;20040;-81
2021/10/20 03:26:09;;;;;;;3.97;1.83;;;;;;;5.86;100.00;95732.13;5054624;28;20060;-80
2021/10/20 03:28:34;;;;;;;4.10;1.70;;;;;;;5.90;100.00;95725.41;5033849;28;20052;-81
2021/10/20 03:31:00;;;;;;;3.78;1.60;;;;;;;5.88;100.00;95724.84;5060784;28;20036;-80
2021/10/20 03:33:25;;;;;;;2.45;1.75;;;;;;;5.69;100.00;95719.03;5064828;28;20041;-81
2021/10/20 03:35:51;;;;;;;3.80;1.90;;;;;;;5.67;100.00;95721.84;5061575;28;20185;-82
2021/10/20 03:38:16;;;;;;;5.88;1.80;;;;;;;5.58;100.00;95712.81;5048911;28;20037;-81
2021/10/20 03:40:42;;;;;;;3.70;1.80;;;;;;;5.80;100.00;95714.78;5048206;28;20102;-81
2021/10/20 03:43:08;;;;;;;4.47;2.00;;;;;;;5.79;100.00;95718.41;5041626;28;20506;-81
2021/10/20 03:45:33;;;;;;;3.95;1.80;;;;;;;5.79;100.00;95713.19;5061123;28;20047;-80
2021/10/20 03:47:59;;;;;;;3.45;1.80;;;;;;;5.84;100.00;95710.69;5045768;28;20159;-81
2021/10/20 03:50:24;;;;;;;3.88;1.98;;;;;;;5.68;100.00;95707.78;5048940;28;20033;-81
2021/10/20 03:52:50;;;;;;;4.60;1.80;;;;;;;5.56;100.00;95704.44;5067475;28;20029;-81
2021/10/20 03:55:16;;;;;;;3.13;1.70;;;;;;;5.68;100.00;95702.56;5036376;28;20512;-81
2021/10/20 03:57:42;;;;;;;4.43;1.80;;;;;;;5.58;100.00;95702.38;5057395;28;20150;-81
2021/10/20 04:00:10;;;;;;;4.32;1.83;;;;;;;5.46;100.00;95693.78;5065817;28;20051;-81
2021/10/20 04:02:35;;;;;;;3.60;2.03;;;;;;;5.44;100.00;95690.63;5055018;28;20552;-81
2021/10/20 04:05:01;;;;;;;4.85;2.30;;;;;;;5.41;100.00;95697.09;5059648;28;20053;-81
2021/10/20 04:07:27;;;;;;;3.97;2.17;;;;;;;5.38;100.00;95692.34;5048931;28;20132;-83
2021/10/20 04:09:52;;;;;;;3.97;1.92;;;;;;;5.40;100.00;95689.50;5043128;28;20046;-82
2021/10/20 04:12:18;;;;;;;3.60;1.80;;;;;;;5.38;100.00;95680.06;5029148;28;20120;-82
2021/10/20 04:14:44;;;;;;;7.50;2.08;;;;;;;5.44;100.00;95680.19;5032591;28;20048;-82
2021/10/20 04:17:09;;;;;;;3.53;1.70;;;;;;;5.50;100.00;95669.59;5029061;28;20099;-82
2021/10/20 04:19:35;;;;;;;2.55;1.70;;;;;;;5.43;100.00;95668.13;5011303;28;20042;-82
2021/10/20 04:22:00;;;;;;;5.40;1.90;;;;;;;5.40;100.00;95668.63;5023677;28;20045;-80
2021/10/20 04:24:26;;;;;;;3.03;1.60;;;;;;;5.35;100.00;95657.03;5040612;28;20128;-80
2021/10/20 04:26:51;;;;;;;3.20;1.80;;;;;;;5.29;100.00;95647.53;5035847;28;20060;-80
2021/10/20 04:29:17;;;;;;;2.63;1.77;;;;;;;5.29;100.00;95647.53;5031361;28;20759;-80
2021/10/20 04:31:42;;;;;;;3.67;1.90;;;;;;;5.32;100.00;95647.06;5051369;28;20037;-80
2021/10/20 04:34:08;;;;;;;4.32;1.90;;;;;;;5.37;100.00;95646.38;5052249;28;20414;-80
2021/10/20 04:36:34;;;;;;;3.10;1.85;;;;;;;5.36;100.00;95642.97;5035069;28;20067;-80
2021/10/20 04:38:59;;;;;;;2.55;1.63;;;;;;;5.41;100.00;95636.28;5072549;28;20109;-81
2021/10/20 04:41:26;;;;;;;6.82;2.42;;;;;;;5.66;100.00;95631.50;5049413;28;20195;-79
2021/10/20 04:43:51;;;;;;;4.85;1.90;;;;;;;5.65;100.00;95629.91;5065386;28;20098;-80
2021/10/20 04:46:17;;;;;;;3.28;1.80;;;;;;;5.58;100.00;95618.84;5031887;28;20045;-80
2021/10/20 04:48:42;;;;;;;3.35;1.85;;;;;;;5.42;100.00;95619.59;5041250;28;20041;-80
2021/10/20 04:51:08;;;;;;;4.03;2.00;;;;;;;5.42;100.00;95619.59;5067244;28;20049;-80
2021/10/20 04:53:34;;;;;;;3.22;1.80;;;;;;;5.37;100.00;95618.47;5052969;28;20042;-81
2021/10/20 04:56:00;;;;;;;3.42;1.70;;;;;;;5.36;100.00;95616.09;5049568;28;20094;-80
2021/10/20 04:58:26;;;;;;;3.60;1.90;;;;;;;5.34;100.00;95608.50;5034083;28;20045;-80
2021/10/20 05:00:52;;;;;;;4.13;1.98;;;;;;;5.36;100.00;95609.06;5052742;28;20043;-81
2021/10/20 05:03:18;;;;;;;3.33;1.80;;;;;;;5.34;100.00;95607.69;5049813;28;20394;-81
2021/10/20 05:05:43;;;;;;;4.80;2.05;;;;;;;5.29;100.00;95599.78;5048438;28;20067;-81
2021/10/20 05:08:09;;;;;;;4.78;1.75;;;;;;;5.41;100.00;95597.13;5060280;28;20064;-79
2021/10/20 05:10:38;;;;;;;3.60;1.77;;;;;;;5.42;100.00;95598.72;5060461;28;20091;-80
2021/10/20 05:13:03;;;;;;;4.60;1.75;;;;;;;5.42;100.00;95590.88;5032436;28;20102;-80
2021/10/20 05:15:29;;;;;;;3.75;1.90;;;;;;;5.41;100.00;95591.91;5051890;28;20044;-79
2021/10/20 05:17:55;;;;;;;3.78;2.00;;;;;;;5.36;100.00;95590.00;5053433;28;20047;-80
2021/10/20 05:20:21;;;;;;;3.50;1.90;;;;;;;5.29;100.00;95578.91;5052717;28;20046;-79
2021/10/20 05:22:47;;;;;;;4.03;1.95;;;;;;;5.27;100.00;95575.72;5055968;28;20044;-79
2021/10/20 05:25:15;;;;;;;7.40;2.30;;;;;;;5.26;100.00;95585.38;5035532;28;20049;-80
2021/10/20 05:27:42;;;;;;;5.03;2.00;;;;;;;5.26;100.00;95577.56;5070261;28;20044;-79
2021/10/20 05:30:08;;;;;;;4.65;2.10;;;;;;;5.28;100.00;95572.88;5069654;28;20052;-80
2021/10/20 05:32:34;;;;;;;4.35;1.95;;;;;;;5.25;100.00;95568.16;5044149;28;20052;-80
2021/10/20 05:34:59;;;;;;;3.80;2.10;;;;;;;5.31;100.00;95567.19;5052069;28;20044;-80
2021/10/20 05:37:25;;;;;;;2.92;1.80;;;;;;;5.32;100.00;95565.41;5070488;28;20115;-81
2021/10/20 05:39:52;;;;;;;3.78;1.98;;;;;;;5.35;100.00;95578.75;5023196;28;20044;-81
2021/10/20 05:42:19;;;;;;;9.73;2.08;;;;;;;5.29;100.00;95579.69;5055595;28;20083;-81
2021/10/20 05:44:45;;;;;;;3.95;1.83;;;;;;;5.27;100.00;95576.53;5054164;28;20596;-80
2021/10/20 05:47:11;;;;;;;3.13;1.70;;;;;;;5.34;100.00;95571.97;5063066;28;20524;-81
2021/10/20 05:49:37;;;;;;;3.35;1.75;;;;;;;5.30;100.00;95589.13;5071412;28;20474;-81
2021/10/20 05:52:04;;;;;;;5.20;2.00;;;;;;;5.33;100.00;95580.81;5045851;28;20127;-80
2021/10/20 05:54:30;;;;;;;3.05;1.90;;;;;;;5.29;100.00;95587.53;5040405;28;20124;-81
2021/10/20 05:56:55;;;;;;;4.60;2.13;;;;;;;5.30;100.00;95583.91;5041191;28;20048;-81
2021/10/20 05:59:22;;;;;;;5.70;2.20;;;;;;;5.44;100.00;95581.78;5053629;28;20493;-81
2021/10/20 06:01:49;;;;;;;5.45;2.17;;;;;;;5.36;100.00;95590.78;5066003;28;20051;-81
2021/10/20 06:04:16;;;;;;;8.40;2.63;;;;;;;5.47;100.00;95596.19;5061305;28;20067;-82
2021/10/20 06:06:42;;;;;;;7.03;2.80;;;;;;;5.58;100.00;95597.94;5032703;28;20048;-81
2021/10/20 06:09:07;;;;;;;3.97;2.17;;;;;;;5.61;100.00;95592.25;5051071;28;20052;-81
2021/10/20 06:11:33;;;;;;;4.55;2.03;;;;;;;5.66;100.00;95594.16;5053624;28;20047;-81
2021/10/20 06:13:59;;;;;;;4.85;2.20;;;;;;;5.54;100.00;95591.59;5067415;28;20049;-81
2021/10/20 06:16:24;;;;;;;6.75;2.13;;;;;;;5.56;100.00;95594.78;5043784;28;20073;-81
2021/10/20 06:18:50;;;;;;;5.50;2.20;;;;;;;5.58;100.00;95592.72;5062912;28;20040;-81
2021/10/20 06:21:15;;;;;;;6.32;2.67;;;;;;;5.60;100.00;95595.88;5031480;28;20047;-80
2021/10/20 06:23:41;;;;;;;5.65;2.35;;;;;;;5.67;100.00;95591.31;5054550;28;20041;-80
2021/10/20 06:26:07;;;;;;;4.95;2.40;;;;;;;5.53;100.00;95569.94;5069127;28;20056;-80
2021/10/20 06:28:32;;;;;;;9.90;2.58;;;;;;;5.72;100.00;95583.56;5051504;28;20048;-80
2021/10/20 06:30:58;;;;;;;8.25;2.53;;;;;;;5.66;100.00;95574.06;5070159;28;20072;-82
2021/10/20 06:33:24;;;;;;;4.80;2.60;;;;;;;5.71;100.00;95584.59;5049417;28;20090;-82
2021/10/20 06:35:49;;;;;;;5.10;2.40;;;;;;;5.78;100.00;95571.38;5057923;28;20483;-82
2021/10/20 06:38:15;;;;;;;5.78;2.00;;;;;;;5.86;100.00;95575.41;5064700;28;20072;-81
2021/10/20 06:40:40;;;;;;;3.55;2.03;;;;;;;5.85;100.00;95576.47;5038936;28;20468;-80
2021/10/20 06:43:06;;;;;;;8.60;2.50;;;;;;;6.16;100.00;95579.56;5042132;28;20040;-80
2021/10/20 06:45:32;;;;;;;9.20;2.10;;;;;;;6.14;100.00;95569.34;5041194;28;20105;-80
2021/10/20 06:47:57;;;;;;;6.70;3.00;;;;;;;6.28;100.00;95569.81;5041960;28;20042;-81
2021/10/20 06:50:23;;;;;;;7.55;2.53;;;;;;;6.32;100.00;95570.91;5049475;28;20517;-82
2021/10/20 06:52:49;;;;;;;7.35;2.50;;;;;;;6.19;100.00;95569.44;5050126;28;20578;-84
2021/10/20 06:55:15;;;;;;;6.47;2.20;;;;;;;6.18;100.00;95574.91;5044089;28;20045;-79
2021/10/20 06:57:41;;;;;;;6.20;2.72;;;;;;;6.34;100.00;95568.84;5030912;28;20051;-80
2021/10/20 07:00:08;;;;;;;7.55;2.53;;;;;;;6.26;100.00;95576.31;5030465;28;20411;-82
2021/10/20 07:02:33;;;;;;;5.47;2.58;;;;;;;6.22;100.00;95570.75;5020905;28;20052;-83
2021/10/20 07:05:00;;;;;;;5.47;2.47;;;;;;;6.21;100.00;95574.41;5045562;28;20042;-84
2021/10/20 07:07:26;;;;;;;5.20;2.72;;;;;;;6.25;100.00;95575.53;5039969;28;20049;-83
2021/10/20 07:09:51;;;;;;;4.15;2.15;;;;;;;6.27;100.00;95581.28;5029857;28;20107;-83
2021/10/20 07:12:16;;;;;;;4.45;2.50;;;;;;;6.34;100.00;95574.06;5031062;28;20594;-83
2021/10/20 07:14:42;;;;;;;7.25;2.45;;;;;;;6.36;100.00;95587.69;5030569;28;20053;-83
2021/10/20 07:17:09;;;;;;;5.57;2.70;;;;;;;6.45;100.00;95593.31;5048220;28;20041;-83
2021/10/20 07:19:38;;;;;;;12.90;2.60;;;;;;;6.57;100.00;95599.22;5049818;28;20132;-83
2021/10/20 07:22:07;;;;;;;11.00;3.88;;;;;;;6.68;100.00;95600.16;5050043;28;20414;-82
2021/10/20 07:24:33;;;;;;;10.95;4.05;;;;;;;6.85;100.00;95605.34;5031838;28;20079;-82
2021/10/20 07:26:59;;;;;;;9.35;3.70;;;;;;;6.94;100.00;95603.09;5048394;28;20041;-82
2021/10/20 07:29:25;;;;;;;8.98;3.50;;;;;;;7.13;100.00;95600.16;5048307;28;20048;-83
2021/10/20 07:31:51;;;;;;;9.27;3.50;;;;;;;7.22;100.00;95593.44;5041810;28;20041;-82
2021/10/20 07:34:16;;;;;;;7.57;3.50;;;;;;;7.32;100.00;95587.53;5043515;28;20067;-83
2021/10/20 07:36:42;;;;;;;8.20;3.63;;;;;;;7.39;100.00;95588.13;5047836;28;20045;-82
2021/10/20 07:39:09;;;;;;;14.73;3.75;;;;;;;7.46;100.00;95591.34;5047465;28;20048;-81
2021/10/20 07:41:34;;;;;;;7.43;3.20;;;;;;;7.58;100.00;95585.94;5046580;28;20407;-82
2021/10/20 07:44:01;;;;;;;7.40;3.00;;;;;;;7.70;100.00;95589.22;5028652;28;20045;-82
2021/10/20 07:46:27;;;;;;;8.82;3.35;;;;;;;7.76;100.00;95582.19;5023530;28;20426;-84
2021/10/20 07:48:53;;;;;;;6.90;2.72;;;;;;;7.91;100.00;95577.06;5032556;28;20053;-82
2021/10/20 07:51:18;;;;;;;10.35;3.22;;;;;;;8.13;100.00;95570.91;5036447;28;20045;-82
2021/10/20 07:53:44;;;;;;;5.82;3.00;;;;;;;8.43;100.00;95562.47;5030004;28;20038;-81
2021/10/20 07:56:09;;;;;;;8.10;2.90;;;;;;;8.52;100.00;95562.00;5013826;28;20040;-85
2021/10/20 07:58:35;;;;;;;9.55;3.10;;;;;;;8.59;100.00;95563.38;5030621;28;20041;-81
2021/10/20 08:01:01;;;;;;;7.55;2.78;;;;;;;8.65;100.00;95562.34;5023780;28;20046;-81
2021/10/20 08:03:28;;;;;;;6.43;2.90;;;;;;;8.70;100.00;95551.09;5032740;28;20490;-81
2021/10/20 08:05:54;;;;;;;6.47;2.65;;;;;;;8.71;100.00;95536.94;5033740;28;20049;-80
2021/10/20 08:08:20;;;;;;;7.32;2.38;;;;;;;9.07;100.00;95558.03;5035678;28;20056;-83
2021/10/20 08:10:45;;;;;;;5.75;2.30;;;;;;;9.16;100.00;95545.97;5025057;28;20060;-82
2021/10/20 08:13:11;;;;;;;3.97;1.70;;;;;;;9.84;100.00;95550.28;5034517;28;20051;-82
2021/10/20 08:15:39;;;;;;;7.22;1.92;;;;;;;10.25;100.00;95548.69;5034108;28;20037;-81
2021/10/20 08:18:06;;;;;;;4.55;1.80;;;;;;;11.09;99.91;95546.31;5033925;28;20049;-81
2021/10/20 08:20:34;;;;;;;3.35;1.75;;;;;;;11.41;100.00;95553.00;5034663;28;20071;-82
2021/10/20 08:23:02;;;;;;;4.65;1.42;;;;;;;11.32;99.73;95559.88;5016660;28;20041;-82
2021/10/20 08:25:28;;;;;;;5.05;1.90;;;;;;;11.45;98.00;95559.28;5036608;28;20044;-81
2021/10/20 08:27:54;;;;;;;6.00;1.65;;;;;;;11.58;95.26;95563.94;5052476;28;20040;-81
2021/10/20 08:30:20;;;;;;;2.75;1.48;;;;;;;11.68;97.32;95575.47;5039766;28;20052;-81
2021/10/20 08:32:51;;;;;;;4.88;2.10;;;;;;;11.79;96.77;95569.06;5047693;28;20037;-79
2021/10/20 08:35:18;;;;;;;5.72;2.15;;;;;;;12.06;94.13;95567.84;5034093;28;20058;-79
2021/10/20 08:37:45;;;;;;;5.03;1.98;;;;;;;12.15;94.55;95571.44;5046004;28;20407;-79
2021/10/20 08:40:12;;;;;;;6.05;3.10;;;;;;;12.40;93.52;95572.31;5051512;28;20375;-79
2021/10/20 08:42:39;;;;;;;4.28;1.85;;;;;;;12.41;94.14;95573.84;5050805;28;20494;-78
2021/10/20 08:45:08;;;;;;;7.32;2.05;;;;;;;12.70;91.34;95573.03;5053676;28;20263;-80
2021/10/20 08:47:34;;;;;;;6.43;2.05;;;;;;;12.76;91.99;95564.00;5055007;28;20074;-79
2021/10/20 08:50:07;;;;;;;4.35;2.40;;;;;;;12.78;91.60;95561.84;5054966;28;20045;-77
2021/10/20 08:52:33;;;;;;;5.68;2.08;;;;;;;12.92;89.34;95562.75;5050555;28;20040;-78
2021/10/20 08:55:00;;;;;;;10.00;2.33;;;;;;;12.95;91.08;95556.88;5052648;28;20054;-78
2021/10/20 08:57:26;;;;;;;6.38;2.33;;;;;;;13.08;90.66;95542.19;5056054;28;20084;-77
2021/10/20 08:59:51;;;;;;;6.57;2.13;;;;;;;13.45;86.19;95547.84;5045770;28;20037;-80
2021/10/20 09:02:20;;;;;;;7.40;1.95;;;;;;;13.69;83.26;95548.53;5048377;28;20045;-79
2021/10/20 09:04:52;;;;;;;3.65;1.73;;;;;;;13.74;81.94;95544.25;5057304;28;20063;-80
2021/10/20 09:07:17;;;;;;;3.75;1.90;;;;;;;13.89;81.14;95541.34;5052146;28;20120;-80
2021/10/20 09:09:42;;;;;;;6.47;1.67;;;;;;;14.25;78.31;95543.41;5035232;28;20578;-78
2021/10/20 09:12:08;;;;;;;6.20;2.00;;;;;;;14.37;79.03;95543.72;5034157;28;20041;-78
2021/10/20 09:14:34;;;;;;;4.47;1.70;;;;;;;14.83;72.39;95546.63;5032499;28;20522;-77
2021/10/20 09:17:04;;;;;;;17.60;2.33;;;;;;;15.15;70.52;95558.16;5032933;28;20042;-78
2021/10/20 09:19:34;;;;;;;4.38;1.60;;;;;;;15.39;69.19;95547.31;5033716;28;20041;-78
2021/10/20 09:22:04;;;;;;;5.40;1.77;;;;;;;15.44;70.03;95543.75;5052306;28;20045;-78
2021/10/20 09:24:34;;;;;;;4.28;1.50;;;;;;;15.82;65.65;95540.81;5053332;28;20434;-76
2021/10/20 09:27:02;;;;;;;3.00;1.60;;;;;;;15.61;70.88;95537.81;5017468;28;20042;-78
2021/10/20 09:29:30;;;;;;;3.72;1.83;;;;;;;15.59;67.49;95530.16;5046890;28;20049;-78
2021/10/20 09:31:56;;;;;;;3.08;1.80;;;;;;;15.67;65.58;95526.78;5050339;28;20560;-78
2021/10/20 09:34:32;;;;;;;2.97;1.75;;;;;;;16.02;64.89;95527.06;5041182;28;20054;-78
2021/10/20 09:36:59;;;;;;;3.60;1.83;;;;;;;16.14;65.69;95534.44;5040037;28;20045;-78
2021/10/20 09:39:25;;;;;;;3.00;1.70;;;;;;;16.41;65.92;95517.56;5052890;28;20041;-80
2021/10/20 09:41:54;;;;;;;4.32;1.70;;;;;;;16.73;65.43;95515.63;5046654;28;20513;-79
2021/10/20 09:44:20;;;;;;;3.83;1.70;;;;;;;17.11;60.79;95501.84;5046850;28;20041;-78
2021/10/20 09:46:47;;;;;;;4.25;1.60;;;;;;;18.10;57.50;95503.06;5021565;28;20574;-78
2021/10/20 09:49:15;;;;;;;4.97;1.55;;;;;;;19.15;55.45;95494.59;5029719;28;20046;-77
2021/10/20 09:51:41;;;;;;;2.65;1.50;;;;;;;20.41;52.70;95492.81;5051637;28;20037;-79
2021/10/20 09:54:21;;;;;;;3.05;1.50;;;;;;;20.94;51.07;95484.94;5060452;28;20044;-77
2021/10/20 09:56:58;;;;;;;3.65;1.55;;;;;;;21.74;45.48;95493.34;5048296;28;20486;-77
2021/10/20 09:59:26;;;;;;;2.67;1.58;;;;;;;21.54;43.90;95493.19;5034775;28;20090;-78
2021/10/20 10:01:52;;;;;;;3.00;1.67;;;;;;;21.47;43.71;95479.56;5055379;28;20072;-76
2021/10/20 10:04:18;;;;;;;2.45;1.50;;;;;;;21.59;44.66;95476.09;5041556;28;20049;-77
2021/10/20 10:06:48;;;;;;;2.90;1.75;;;;;;;21.47;43.59;95468.88;5035307;28;20037;-79
2021/10/20 10:09:14;;;;;;;4.03;1.60;;;;;;;21.85;43.95;95466.84;5043598;28;20095;-76
2021/10/20 10:11:56;;;;;;;6.05;1.65;;;;;;;22.40;44.35;95461.72;5047846;28;20041;-78
2021/10/20 10:14:27;;;;;;;5.15;1.70;;;;;;;22.97;44.36;95454.97;5044692;28;20090;-81
2021/10/20 10:16:59;;;;;;;2.92;1.45;;;;;;;23.22;41.91;95454.75;5040694;28;20048;-81
2021/10/20 10:19:31;;;;;;;4.75;1.80;;;;;;;23.65;42.64;95439.47;5043213;28;20037;-79
2021/10/20 10:21:58;;;;;;;4.55;2.03;;;;;;;24.18;40.21;95438.13;5050678;28;20103;-81
2021/10/20 10:24:23;;;;;;;4.35;1.80;;;;;;;23.98;39.72;95430.09;5051339;28;20463;-77
2021/10/20 10:26:58;;;;;;;4.93;1.80;;;;;;;24.35;38.34;95426.88;5036538;28;20037;-79
2021/10/20 10:29:24;;;;;;;3.67;1.58;;;;;;;24.56;37.80;95420.25;5048912;28;20065;-80
2021/10/20 10:31:51;;;;;;;5.38;2.00;;;;;;;24.57;38.74;95421.81;5050896;28;20048;-79
2021/10/20 10:34:30;;;;;;;4.93;2.10;;;;;;;24.17;37.95;95409.69;5026548;28;20051;-77
2021/10/20 10:36:59;;;;;;;2.22;1.63;;;;;;;24.31;37.02;95409.13;5050746;28;20045;-79
2021/10/20 10:39:26;;;;;;;3.90;1.90;;;;;;;24.19;38.25;95412.78;5053624;28;20058;-78
2021/10/20 10:42:00;;;;;;;3.35;1.90;;;;;;;24.83;35.91;95406.84;5050020;28;20049;-77
2021/10/20 10:44:28;;;;;;;3.78;2.08;;;;;;;24.02;35.73;95401.38;5048419;28;20037;-77
2021/10/20 10:47:28;;;;;;;3.58;2.10;;;;;;;23.51;38.06;95397.00;5045554;28;20041;-77
2021/10/20 10:49:57;;;;;;;2.97;1.90;;;;;;;23.91;35.90;95387.00;5037234;28;20045;-77
2021/10/20 10:52:34;;;;;;;3.78;2.03;;;;;;;24.70;34.95;95382.84;5050634;28;20380;-77
2021/10/20 10:55:14;;;;;;;2.58;1.60;;;;;;;25.00;35.59;95384.75;5048989;28;20041;-77
2021/10/20 10:58:03;;;;;;;4.40;2.22;;;;;;;24.61;36.17;95374.25;5014449;28;20049;-77
2021/10/20 11:00:46;;;;;;;4.97;2.35;;;;;;;24.31;35.98;95377.63;5049790;28;20049;-79
2021/10/20 11:03:18;;;;;;;4.72;2.15;;;;;;;24.26;36.20;95379.84;5043394;28;20048;-79
2021/10/20 11:05:49;;;;;;;3.78;2.30;;;;;;;23.96;36.57;95384.00;5045254;28;20044;-79
2021/10/20 11:08:15;;;;;;;3.08;2.13;;;;;;;24.08;35.87;95379.56;5050531;28;20108;-79
2021/10/20 11:10:42;;;;;;;4.88;2.38;;;;;;;24.28;36.18;95394.50;5048795;28;20045;-79
2021/10/20 11:13:09;;;;;;;5.75;2.40;;;;;;;24.59;35.29;95381.88;5032178;28;20068;-79
2021/10/20 11:15:36;;;;;;;3.33;1.90;;;;;;;24.34;36.01;95379.59;5024704;28;20060;-79
2021/10/20 11:18:02;;;;;;;4.00;2.38;;;;;;;24.89;34.83;95373.06;5049811;28;20572;-78
2021/10/20 11:20:31;;;;;;;4.72;2.20;;;;;;;24.65;35.24;95364.31;5049598;28;20045;-80
2021/10/20 11:23:01;;;;;;;4.40;2.55;;;;;;;24.57;34.92;95349.19;5049611;28;20056;-77
2021/10/20 11:25:27;;;;;;;7.43;2.88;;;;;;;24.46;36.10;95350.97;5049076;28;20071;-77
2021/10/20 11:27:54;;;;;;;4.65;2.70;;;;;;;24.84;35.10;95346.47;5049807;28;20045;-79
2021/10/20 11:30:23;;;;;;;3.70;2.30;;;;;;;24.70;33.53;95339.78;5049379;28;20534;-78
2021/10/20 11:32:50;;;;;;;7.18;2.65;;;;;;;24.09;34.91;95343.50;5041420;28;20601;-78